^^
Datos históricos de la estación: Murcia-Puente Tocinos
Diario Informe para Septiembre 23, 2020 Unidades:  Ambas    Ingés   Métrico
Diario Semanal Mensual Anual
  Máxima: Mínima: Promedio:
Temperatura: 89.2 °F /  31.8 °C 69.3 °F /  20.7 °C 77.9 °F /  25.5 °C
Punto de rocio: 63.9 °F /  17.7 °C 52.2 °F /  11.2 °C 59.4 °F /  15.2 °C
Humedad: 78% 29.2% 56%
Velocidad viento: 12.5mph /  20.1km/h - 4.1mph /  6.6km/h
Racha viento: 21mph /  33.8km/h - -
Viento- - Sur
Presión: 29.9 in /  1012.4 hPa 29.8 in /  1008.6 hPa -
Precipitación: 0 in /  0.0 mm    
 
 
Tabla de datos para Septiembre 23, 2020
Hora Temperatura Punto de rocio Presión Viento Velocidad viento Racha viento Humedad Intensidad lluvia(por hora) Nubes
00:04 75.4 °F /  24.1 °C 63.1 °F /  17.3 °C 29.9in /  1012.2hPa Sur 4.7mph /  7.6km/h 7mph /  11.3km/h 65.8% 0in /  0.0mm
00:09 75.2 °F /  24 °C 63.1 °F /  17.3 °C 29.9in /  1012.2hPa Sur 4.7mph /  7.6km/h 7.4mph /  11.9km/h 66% 0in /  0.0mm
00:14 75.2 °F /  24 °C 63.1 °F /  17.3 °C 29.9in /  1012.2hPa SSO 4.6mph /  7.4km/h 7mph /  11.3km/h 66.4% 0in /  0.0mm
00:19 75 °F /  23.9 °C 63.3 °F /  17.4 °C 29.9in /  1012.2hPa SO 4mph /  6.5km/h 5mph /  8km/h 67% 0in /  0.0mm
00:24 75 °F /  23.9 °C 63.3 °F /  17.4 °C 29.9in /  1012.2hPa SSO 3.9mph /  6.2km/h 5mph /  8km/h 67% 0in /  0.0mm
00:29 75 °F /  23.9 °C 63.3 °F /  17.4 °C 29.9in /  1012.0hPa SO 2.9mph /  4.7km/h 5mph /  8km/h 67% 0in /  0.0mm
00:34 74.8 °F /  23.8 °C 63.1 °F /  17.3 °C 29.9in /  1012.0hPa SO 2.9mph /  4.7km/h 5mph /  8km/h 67% 0in /  0.0mm
00:39 74.8 °F /  23.8 °C 63.5 °F /  17.5 °C 29.9in /  1012.2hPa SO 2.9mph /  4.7km/h 6.9mph /  11.1km/h 67.7% 0in /  0.0mm
00:44 74.8 °F /  23.8 °C 63.7 °F /  17.6 °C 29.9in /  1012.2hPa SO 3mph /  4.8km/h 7mph /  11.3km/h 68% 0in /  0.0mm
00:49 74.7 °F /  23.7 °C 63.5 °F /  17.5 °C 29.9in /  1012.2hPa SO 3.6mph /  5.8km/h 8.1mph /  13km/h 68% 0in /  0.0mm
00:54 74.7 °F /  23.7 °C 63.3 °F /  17.4 °C 29.9in /  1012.2hPa SO 3.7mph /  6km/h 9.2mph /  14.8km/h 68% 0in /  0.0mm
00:59 74.5 °F /  23.6 °C 63.5 °F /  17.5 °C 29.9in /  1012.2hPa SO 4.7mph /  7.6km/h 9mph /  14.5km/h 68.6% 0in /  0.0mm
01:04 74.3 °F /  23.5 °C 63.5 °F /  17.5 °C 29.9in /  1012.2hPa SO 4.8mph /  7.7km/h 8.1mph /  13km/h 69% 0in /  0.0mm
01:09 74.1 °F /  23.4 °C 63.3 °F /  17.4 °C 29.9in /  1012.3hPa SO 5.2mph /  8.4km/h 8mph /  12.9km/h 69% 0in /  0.0mm
01:14 73.9 °F /  23.3 °C 63.5 °F /  17.5 °C 29.9in /  1012.3hPa SO 5.1mph /  8.2km/h 7mph /  11.3km/h 69.7% 0in /  0.0mm
01:19 73.9 °F /  23.3 °C 63.5 °F /  17.5 °C 29.9in /  1012.3hPa SSO 4.3mph /  6.9km/h 9.2mph /  14.8km/h 70% 0in /  0.0mm
01:24 73.8 °F /  23.2 °C 63.3 °F /  17.4 °C 29.9in /  1012.3hPa Sur 4.3mph /  7km/h 9.2mph /  14.8km/h 70% 0in /  0.0mm
01:29 73.4 °F /  23 °C 63 °F /  17.2 °C 29.9in /  1012.2hPa SSO 4.7mph /  7.6km/h 9mph /  14.5km/h 70% 0in /  0.0mm
01:34 73.2 °F /  22.9 °C 62.4 °F /  16.9 °C 29.9in /  1012.2hPa SSO 4.8mph /  7.7km/h 9.2mph /  14.8km/h 69.3% 0in /  0.0mm
01:39 73 °F /  22.8 °C 62.2 °F /  16.8 °C 29.9in /  1012.2hPa SSO 5.2mph /  8.4km/h 9mph /  14.5km/h 69% 0in /  0.0mm
01:44 73 °F /  22.8 °C 62.2 °F /  16.8 °C 29.9in /  1012.2hPa SSO 5.2mph /  8.4km/h 9mph /  14.5km/h 69% 0in /  0.0mm
01:49 73 °F /  22.8 °C 62.6 °F /  17 °C 29.9in /  1012.2hPa SSO 5.4mph /  8.7km/h 8mph /  12.9km/h 69.8% 0in /  0.0mm
01:54 73 °F /  22.8 °C 63 °F /  17.2 °C 29.9in /  1012.2hPa Sur 5.4mph /  8.7km/h 8.1mph /  13km/h 70.5% 0in /  0.0mm
01:59 72.9 °F /  22.7 °C 63 °F /  17.2 °C 29.9in /  1012.2hPa SSO 5.2mph /  8.4km/h 9.2mph /  14.8km/h 71% 0in /  0.0mm
02:04 72.9 °F /  22.7 °C 63 °F /  17.2 °C 29.9in /  1012.2hPa SSO 5.1mph /  8.2km/h 9mph /  14.5km/h 71% 0in /  0.0mm
02:09 72.9 °F /  22.7 °C 63 °F /  17.2 °C 29.9in /  1012.2hPa SSO 4.7mph /  7.6km/h 7mph /  11.3km/h 71% 0in /  0.0mm
02:14 72.9 °F /  22.7 °C 63 °F /  17.2 °C 29.9in /  1012.0hPa SSO 4.5mph /  7.3km/h 8.1mph /  13km/h 71% 0in /  0.0mm
02:19 72.9 °F /  22.7 °C 63 °F /  17.2 °C 29.9in /  1012.0hPa SSO 3.6mph /  5.8km/h 8mph /  12.9km/h 71.2% 0in /  0.0mm
02:24 72.7 °F /  22.6 °C 63.1 °F /  17.3 °C 29.9in /  1012.0hPa SSO 3.6mph /  5.8km/h 7mph /  11.3km/h 72% 0in /  0.0mm
02:29 72.7 °F /  22.6 °C 63.1 °F /  17.3 °C 29.9in /  1012.0hPa Sur 4mph /  6.4km/h 7mph /  11.3km/h 72% 0in /  0.0mm
02:34 72.7 °F /  22.6 °C 63.1 °F /  17.3 °C 29.9in /  1012.0hPa SSO 4mph /  6.4km/h 5.8mph /  9.3km/h 72% 0in /  0.0mm
02:39 72.7 °F /  22.6 °C 63.1 °F /  17.3 °C 29.9in /  1012.1hPa Sur 3.6mph /  5.8km/h 6.9mph /  11.1km/h 72.2% 0in /  0.0mm
02:44 72.5 °F /  22.5 °C 63.1 °F /  17.3 °C 29.9in /  1012.1hPa SSO 3.7mph /  5.9km/h 7mph /  11.3km/h 72.3% 0in /  0.0mm
02:49 72.3 °F /  22.4 °C 63.1 °F /  17.3 °C 29.9in /  1012.1hPa SSO 4mph /  6.4km/h 7mph /  11.3km/h 73% 0in /  0.0mm
02:54 72.3 °F /  22.4 °C 63.1 °F /  17.3 °C 29.9in /  1012.1hPa SO 4mph /  6.4km/h 6mph /  9.7km/h 73% 0in /  0.0mm
02:59 72.3 °F /  22.4 °C 63.1 °F /  17.3 °C 29.9in /  1012.1hPa SSO 3.6mph /  5.8km/h 6.2mph /  10km/h 73% 0in /  0.0mm
03:04 72.3 °F /  22.4 °C 63.5 °F /  17.5 °C 29.9in /  1012.1hPa SO 3.6mph /  5.8km/h 6.2mph /  10km/h 73.6% 0in /  0.0mm
03:09 72.1 °F /  22.3 °C 63.5 °F /  17.5 °C 29.9in /  1012.2hPa SSO 3.6mph /  5.8km/h 6.9mph /  11.1km/h 74% 0in /  0.0mm
03:14 72.1 °F /  22.3 °C 63.3 °F /  17.4 °C 29.9in /  1012.2hPa SSO 3.7mph /  5.9km/h 7mph /  11.3km/h 74% 0in /  0.0mm
03:19 72 °F /  22.2 °C 63.3 °F /  17.4 °C 29.9in /  1012.2hPa SO 4mph /  6.4km/h 7mph /  11.3km/h 74% 0in /  0.0mm
03:24 72 °F /  22.2 °C 63.5 °F /  17.5 °C 29.9in /  1012.2hPa SSO 3.9mph /  6.3km/h 6mph /  9.7km/h 74.8% 0in /  0.0mm
03:29 72 °F /  22.2 °C 63.7 °F /  17.6 °C 29.9in /  1012.1hPa SSO 3.1mph /  5km/h 5mph /  8km/h 75% 0in /  0.0mm
03:34 72 °F /  22.2 °C 63.7 °F /  17.6 °C 29.9in /  1012.1hPa SO 3mph /  4.8km/h 5.2mph /  8.4km/h 75% 0in /  0.0mm
03:39 72 °F /  22.2 °C 63.5 °F /  17.5 °C 29.9in /  1012.1hPa SO 2.4mph /  3.9km/h 5.8mph /  9.3km/h 75% 0in /  0.0mm
03:44 71.8 °F /  22.1 °C 63.5 °F /  17.5 °C 29.9in /  1012.0hPa Sur 2.5mph /  4km/h 6mph /  9.7km/h 75.1% 0in /  0.0mm
03:49 71.8 °F /  22.1 °C 63.9 °F /  17.7 °C 29.9in /  1012.0hPa SSE 3.1mph /  5km/h 6.4mph /  10.3km/h 76% 0in /  0.0mm
03:54 71.8 °F /  22.1 °C 63.9 °F /  17.7 °C 29.9in /  1012.0hPa SSO 3.2mph /  5.2km/h 6.9mph /  11.1km/h 76% 0in /  0.0mm
03:59 71.6 °F /  22 °C 63.3 °F /  17.4 °C 29.9in /  1011.9hPa SO 4mph /  6.4km/h 6mph /  9.7km/h 75.2% 0in /  0.0mm
04:04 71.6 °F /  22 °C 63.3 °F /  17.4 °C 29.9in /  1011.9hPa SO 3.9mph /  6.2km/h 5mph /  8km/h 75% 0in /  0.0mm
04:09 71.4 °F /  21.9 °C 63.1 °F /  17.3 °C 29.9in /  1011.9hPa SSO 2.4mph /  3.9km/h 5mph /  8km/h 75% 0in /  0.0mm
04:14 71.4 °F /  21.9 °C 63.1 °F /  17.3 °C 29.9in /  1011.7hPa SSO 2.4mph /  3.9km/h 5mph /  8km/h 75% 0in /  0.0mm
04:19 71.4 °F /  21.9 °C 63.1 °F /  17.3 °C 29.9in /  1011.7hPa SSO 2.4mph /  3.9km/h 4.6mph /  7.4km/h 75% 0in /  0.0mm
04:24 71.4 °F /  21.9 °C 63.1 °F /  17.3 °C 29.9in /  1011.7hPa SSE 2.5mph /  4km/h 5.2mph /  8.4km/h 75% 0in /  0.0mm
04:29 71.4 °F /  21.9 °C 63.1 °F /  17.3 °C 29.9in /  1011.7hPa SE 2.9mph /  4.7km/h 5.8mph /  9.3km/h 75% 0in /  0.0mm
04:34 71.2 °F /  21.8 °C 63.1 °F /  17.3 °C 29.9in /  1011.7hPa SSE 2.9mph /  4.7km/h 6mph /  9.7km/h 75.3% 0in /  0.0mm
04:39 71.2 °F /  21.8 °C 63.3 °F /  17.4 °C 29.9in /  1011.7hPa Sur 3.1mph /  5km/h 6mph /  9.7km/h 76% 0in /  0.0mm
04:44 71.2 °F /  21.8 °C 63 °F /  17.2 °C 29.9in /  1011.5hPa SE 3mph /  4.8km/h 5mph /  8km/h 75.6% 0in /  0.0mm
04:49 71.1 °F /  21.7 °C 63 °F /  17.2 °C 29.9in /  1011.5hPa SE 2.4mph /  3.9km/h 4.7mph /  7.6km/h 75.8% 0in /  0.0mm
04:54 71.1 °F /  21.7 °C 63 °F /  17.2 °C 29.9in /  1011.5hPa SE 2.4mph /  3.9km/h 5mph /  8km/h 75.8% 0in /  0.0mm
04:59 70.9 °F /  21.6 °C 63 °F /  17.2 °C 29.9in /  1011.3hPa SSO 2.4mph /  3.9km/h 4.6mph /  7.4km/h 76% 0in /  0.0mm
05:04 70.9 °F /  21.6 °C 62.4 °F /  16.9 °C 29.9in /  1011.3hPa SE 2.5mph /  4km/h 5.9mph /  9.5km/h 74.9% 0in /  0.0mm
05:09 70.5 °F /  21.4 °C 61.9 °F /  16.6 °C 29.9in /  1011.5hPa SSE 2.9mph /  4.7km/h 6mph /  9.7km/h 74% 0in /  0.0mm
05:14 70.3 °F /  21.3 °C 62.1 °F /  16.7 °C 29.9in /  1011.5hPa Sur 2.9mph /  4.7km/h 6mph /  9.7km/h 74.8% 0in /  0.0mm
05:19 70.3 °F /  21.3 °C 62.2 °F /  16.8 °C 29.9in /  1011.5hPa Sur 3.1mph /  5km/h 5mph /  8km/h 75.1% 0in /  0.0mm
05:24 70.5 °F /  21.4 °C 62.6 °F /  17 °C 29.9in /  1011.5hPa SSO 3mph /  4.8km/h 4.6mph /  7.4km/h 76% 0in /  0.0mm
05:29 70.7 °F /  21.5 °C 62.8 °F /  17.1 °C 29.9in /  1011.4hPa OSO 2mph /  3.2km/h 5mph /  8km/h 76% 0in /  0.0mm
05:34 70.9 °F /  21.6 °C 63 °F /  17.2 °C 29.9in /  1011.4hPa SO 1.9mph /  3.1km/h 4mph /  6.4km/h 76% 0in /  0.0mm
05:39 70.9 °F /  21.6 °C 62.8 °F /  17.1 °C 29.9in /  1011.4hPa SO 1.4mph /  2.2km/h 5.2mph /  8.4km/h 75.4% 0in /  0.0mm
05:44 71.1 °F /  21.7 °C 62.8 °F /  17.1 °C 29.9in /  1011.3hPa SO 1.5mph /  2.4km/h 3.6mph /  5.8km/h 75% 0in /  0.0mm
05:49 71.1 °F /  21.7 °C 62.8 °F /  17.1 °C 29.9in /  1011.3hPa SO 2.4mph /  3.9km/h 4.6mph /  7.4km/h 75% 0in /  0.0mm
05:54 71.1 °F /  21.7 °C 62.8 °F /  17.1 °C 29.9in /  1011.3hPa SO 2.4mph /  3.9km/h 5mph /  8km/h 75% 0in /  0.0mm
05:59 71.1 °F /  21.7 °C 62.8 °F /  17.1 °C 29.9in /  1011.3hPa SO 2.9mph /  4.7km/h 4mph /  6.4km/h 75% 0in /  0.0mm
06:04 71.1 °F /  21.7 °C 62.8 °F /  17.1 °C 29.9in /  1011.3hPa OSO 2.7mph /  4.4km/h 4.6mph /  7.4km/h 75.5% 0in /  0.0mm
06:09 70.9 °F /  21.6 °C 63 °F /  17.2 °C 29.9in /  1011.3hPa Oeste 2mph /  3.2km/h 5mph /  8km/h 76% 0in /  0.0mm
06:14 70.7 °F /  21.5 °C 62.8 °F /  17.1 °C 29.9in /  1011.3hPa OSO 2.1mph /  3.3km/h 5.4mph /  8.7km/h 76% 0in /  0.0mm
06:19 70.5 °F /  21.4 °C 62.2 °F /  16.8 °C 29.9in /  1011.3hPa SO 2.4mph /  3.9km/h 7.4mph /  11.9km/h 75.2% 0in /  0.0mm
06:24 70.3 °F /  21.3 °C 61.7 °F /  16.5 °C 29.9in /  1011.4hPa SO 2.6mph /  4.2km/h 7mph /  11.3km/h 74.1% 0in /  0.0mm
06:29 70.3 °F /  21.3 °C 61.7 °F /  16.5 °C 29.9in /  1011.4hPa SO 4mph /  6.4km/h 6mph /  9.7km/h 74% 0in /  0.0mm
06:34 70.3 °F /  21.3 °C 61.7 °F /  16.5 °C 29.9in /  1011.4hPa Sur 3.9mph /  6.3km/h 6.9mph /  11.1km/h 74% 0in /  0.0mm
06:39 70.2 °F /  21.2 °C 61.5 °F /  16.4 °C 29.9in /  1011.4hPa Sur 3.1mph /  5km/h 7mph /  11.3km/h 74% 0in /  0.0mm
06:44 70.2 °F /  21.2 °C 61.5 °F /  16.4 °C 29.9in /  1011.4hPa Sur 3.2mph /  5.1km/h 6.9mph /  11.1km/h 74.2% 0in /  0.0mm
06:49 70 °F /  21.1 °C 61.7 °F /  16.5 °C 29.9in /  1011.4hPa Sur 3.6mph /  5.8km/h 7mph /  11.3km/h 75% 0in /  0.0mm
06:54 70 °F /  21.1 °C 62.1 °F /  16.7 °C 29.9in /  1011.4hPa Sur 3.6mph /  5.8km/h 6.4mph /  10.3km/h 75.9% 0in /  0.0mm
06:59 69.8 °F /  21 °C 62.1 °F /  16.7 °C 29.9in /  1011.2hPa SSO 3.6mph /  5.8km/h 7mph /  11.3km/h 76.1% 0in /  0.0mm
07:04 69.8 °F /  21 °C 62.2 °F /  16.8 °C 29.9in /  1011.2hPa Sur 3.5mph /  5.7km/h 7mph /  11.3km/h 77% 0in /  0.0mm
07:09 69.8 °F /  21 °C 62.2 °F /  16.8 °C 29.9in /  1011.2hPa SO 3.1mph /  5km/h 4.7mph /  7.6km/h 77% 0in /  0.0mm
07:14 69.6 °F /  20.9 °C 62.1 °F /  16.7 °C 29.9in /  1011.2hPa SO 3.1mph /  5km/h 5.8mph /  9.3km/h 77% 0in /  0.0mm
07:19 69.6 °F /  20.9 °C 62.1 °F /  16.7 °C 29.9in /  1011.2hPa SO 3.1mph /  5km/h 6mph /  9.7km/h 77% 0in /  0.0mm
07:24 69.6 °F /  20.9 °C 62.1 °F /  16.7 °C 29.9in /  1011.4hPa SO 3mph /  4.9km/h 5mph /  8km/h 77% 0in /  0.0mm
07:29 69.4 °F /  20.8 °C 62.2 °F /  16.8 °C 29.9in /  1011.4hPa OSO 2.9mph /  4.7km/h 5mph /  8km/h 77.6% 0in /  0.0mm
07:34 69.4 °F /  20.8 °C 62.2 °F /  16.8 °C 29.9in /  1011.4hPa OSO 2.7mph /  4.4km/h 4mph /  6.4km/h 78% 0in /  0.0mm
07:39 69.4 °F /  20.8 °C 62.2 °F /  16.8 °C 29.9in /  1011.4hPa SSO 1.8mph /  2.9km/h 4.7mph /  7.6km/h 78% 0in /  0.0mm
07:44 69.4 °F /  20.8 °C 62.2 °F /  16.8 °C 29.9in /  1011.4hPa SO 1.9mph /  3.1km/h 5.2mph /  8.4km/h 78% 0in /  0.0mm
07:49 69.4 °F /  20.8 °C 62.2 °F /  16.8 °C 29.9in /  1011.4hPa Sur 2.9mph /  4.7km/h 5.9mph /  9.5km/h 78% 0in /  0.0mm
07:54 69.4 °F /  20.8 °C 61.9 °F /  16.6 °C 29.9in /  1011.5hPa Sur 2.9mph /  4.7km/h 6mph /  9.7km/h 77.1% 0in /  0.0mm
07:59 69.4 °F /  20.8 °C 61.9 °F /  16.6 °C 29.9in /  1011.5hPa Sur 3.1mph /  5km/h 6.2mph /  10km/h 77% 0in /  0.0mm
08:04 69.4 °F /  20.8 °C 61.7 °F /  16.5 °C 29.9in /  1011.5hPa Sur 3.4mph /  5.4km/h 8.1mph /  13km/h 76.3% 0in /  0.0mm
08:09 69.4 °F /  20.8 °C 61.7 °F /  16.5 °C 29.9in /  1011.5hPa SSE 4.7mph /  7.5km/h 8mph /  12.9km/h 76.5% 0in /  0.0mm
08:14 69.4 °F /  20.8 °C 61.5 °F /  16.4 °C 29.9in /  1011.5hPa Sur 4.5mph /  7.3km/h 6.2mph /  10km/h 76.1% 0in /  0.0mm
08:19 69.4 °F /  20.8 °C 61.3 °F /  16.3 °C 29.9in /  1011.5hPa SSO 3.6mph /  5.8km/h 6.2mph /  10km/h 75.7% 0in /  0.0mm
08:24 69.3 °F /  20.7 °C 61 °F /  16.1 °C 29.9in /  1011.8hPa SSO 3.7mph /  5.9km/h 7.6mph /  12.2km/h 75% 0in /  0.0mm
08:29 69.4 °F /  20.8 °C 60.8 °F /  16 °C 29.9in /  1011.8hPa SSO 4.3mph /  6.9km/h 8.5mph /  13.7km/h 74.3% 0in /  0.0mm
08:34 69.4 °F /  20.8 °C 60.8 °F /  16 °C 29.9in /  1011.8hPa SSO 4.5mph /  7.2km/h 9mph /  14.5km/h 74% 0in /  0.0mm
08:39 69.4 °F /  20.8 °C 60.8 °F /  16 °C 29.9in /  1011.9hPa SSO 5.4mph /  8.7km/h 9mph /  14.5km/h 74% 0in /  0.0mm
08:44 69.4 °F /  20.8 °C 60.8 °F /  16 °C 29.9in /  1011.9hPa SSO 5.2mph /  8.4km/h 7mph /  11.3km/h 74% 0in /  0.0mm
08:49 69.4 °F /  20.8 °C 60.6 °F /  15.9 °C 29.9in /  1011.9hPa SSO 4mph /  6.5km/h 6mph /  9.7km/h 73.6% 0in /  0.0mm
08:54 69.6 °F /  20.9 °C 60.4 °F /  15.8 °C 29.9in /  1011.9hPa Sur 3.9mph /  6.3km/h 6mph /  9.7km/h 72.6% 0in /  0.0mm
08:59 69.6 °F /  20.9 °C 60.1 °F /  15.6 °C 29.9in /  1011.9hPa Sur 3.1mph /  5km/h 6mph /  9.7km/h 71.8% 0in /  0.0mm
09:04 69.8 °F /  21 °C 60.1 °F /  15.6 °C 29.9in /  1011.9hPa SSO 3mph /  4.9km/h 6mph /  9.7km/h 71% 0in /  0.0mm
09:09 70 °F /  21.1 °C 59.9 °F /  15.5 °C 29.9in /  1011.9hPa Sur 2.9mph /  4.7km/h 5mph /  8km/h 70.3% 0in /  0.0mm
09:14 70.2 °F /  21.2 °C 59.9 °F /  15.5 °C 29.9in /  1011.9hPa Sur 2.9mph /  4.7km/h 5.8mph /  9.3km/h 70% 0in /  0.0mm
09:19 70.3 °F /  21.3 °C 59.9 °F /  15.5 °C 29.9in /  1011.9hPa Sur 3.1mph /  5km/h 6mph /  9.7km/h 69.7% 0in /  0.0mm
09:24 70.5 °F /  21.4 °C 59.9 °F /  15.5 °C 29.9in /  1012.1hPa SSO 3.1mph /  5km/h 6.2mph /  10km/h 69% 0in /  0.0mm
09:29 70.7 °F /  21.5 °C 59.7 °F /  15.4 °C 29.9in /  1012.1hPa SO 3.1mph /  5km/h 6mph /  9.7km/h 68.4% 0in /  0.0mm
09:34 71.1 °F /  21.7 °C 59.5 °F /  15.3 °C 29.9in /  1012.1hPa SO 3.2mph /  5.1km/h 6.2mph /  10km/h 67.4% 0in /  0.0mm
09:39 71.2 °F /  21.8 °C 59.5 °F /  15.3 °C 29.9in /  1012.1hPa SSO 3.6mph /  5.8km/h 6.2mph /  10km/h 66.8% 0in /  0.0mm
09:44 71.2 °F /  21.8 °C 59.2 °F /  15.1 °C 29.9in /  1012.1hPa SO 3.5mph /  5.7km/h 6mph /  9.7km/h 65.5% 0in /  0.0mm
09:49 71.6 °F /  22 °C 59 °F /  15 °C 29.9in /  1012.1hPa SO 3.1mph /  5km/h 6mph /  9.7km/h 64.6% 0in /  0.0mm
09:54 72 °F /  22.2 °C 58.5 °F /  14.7 °C 29.9in /  1012.1hPa OSO 3.2mph /  5.1km/h 6.9mph /  11.1km/h 62.6% 0in /  0.0mm
09:59 72.1 °F /  22.3 °C 58.1 °F /  14.5 °C 29.9in /  1012.1hPa SSO 3.6mph /  5.8km/h 7mph /  11.3km/h 61.7% 0in /  0.0mm
10:04 72.3 °F /  22.4 °C 57.9 °F /  14.4 °C 29.9in /  1012.1hPa SSO 3.6mph /  5.8km/h 6mph /  9.7km/h 60.7% 0in /  0.0mm
10:09 72.7 °F /  22.6 °C 58.1 °F /  14.5 °C 29.9in /  1012.2hPa SSO 3.6mph /  5.8km/h 6mph /  9.7km/h 60.3% 0in /  0.0mm
10:14 72.9 °F /  22.7 °C 57.9 °F /  14.4 °C 29.9in /  1012.2hPa SO 3.6mph /  5.8km/h 6mph /  9.7km/h 59.2% 0in /  0.0mm
10:19 73 °F /  22.8 °C 58.1 °F /  14.5 °C 29.9in /  1012.2hPa SO 3.6mph /  5.8km/h 6mph /  9.7km/h 59.2% 0in /  0.0mm
10:24 73.4 °F /  23 °C 58.3 °F /  14.6 °C 29.9in /  1012.3hPa Sur 3.5mph /  5.7km/h 5.9mph /  9.5km/h 59.2% 0in /  0.0mm
10:29 73.6 °F /  23.1 °C 58.3 °F /  14.6 °C 29.9in /  1012.3hPa Sur 3.1mph /  5km/h 6.9mph /  11.1km/h 58.7% 0in /  0.0mm
10:34 73.8 °F /  23.2 °C 58.3 °F /  14.6 °C 29.9in /  1012.3hPa Sur 3.2mph /  5.1km/h 7mph /  11.3km/h 58.5% 0in /  0.0mm
10:39 73.8 °F /  23.2 °C 58.1 °F /  14.5 °C 29.9in /  1012.4hPa SO 3.6mph /  5.8km/h 6mph /  9.7km/h 58% 0in /  0.0mm
10:44 73.9 °F /  23.3 °C 58.1 °F /  14.5 °C 29.9in /  1012.4hPa SO 3.5mph /  5.7km/h 5mph /  8km/h 58% 0in /  0.0mm
10:49 73.9 °F /  23.3 °C 58.3 °F /  14.6 °C 29.9in /  1012.4hPa SO 3.1mph /  5km/h 5mph /  8km/h 58% 0in /  0.0mm
10:54 74.1 °F /  23.4 °C 57.9 °F /  14.4 °C 29.9in /  1012.4hPa SSO 3mph /  4.9km/h 5.8mph /  9.3km/h 57.1% 0in /  0.0mm
10:59 74.3 °F /  23.5 °C 57.7 °F /  14.3 °C 29.9in /  1012.4hPa OSO 2.4mph /  3.9km/h 6mph /  9.7km/h 56.4% 0in /  0.0mm
11:04 74.5 °F /  23.6 °C 57.7 °F /  14.3 °C 29.9in /  1012.4hPa SO 2.5mph /  4km/h 6mph /  9.7km/h 56% 0in /  0.0mm
11:09 74.7 °F /  23.7 °C 57.6 °F /  14.2 °C 29.9in /  1012.4hPa SO 2.9mph /  4.7km/h 5mph /  8km/h 55.2% 0in /  0.0mm
11:14 75 °F /  23.9 °C 57.7 °F /  14.3 °C 29.9in /  1012.2hPa OSO 2.9mph /  4.7km/h 5.2mph /  8.4km/h 54.9% 0in /  0.0mm
11:19 75.4 °F /  24.1 °C 57.7 °F /  14.3 °C 29.9in /  1012.2hPa OSO 2.9mph /  4.7km/h 5.4mph /  8.7km/h 54.1% 0in /  0.0mm
11:24 75.7 °F /  24.3 °C 57.7 °F /  14.3 °C 29.9in /  1012.2hPa Sur 2.9mph /  4.7km/h 5.2mph /  8.4km/h 53.6% 0in /  0.0mm
11:29 75.9 °F /  24.4 °C 57.7 °F /  14.3 °C 29.9in /  1012.2hPa SSE 2.9mph /  4.7km/h 6.2mph /  10km/h 53% 0in /  0.0mm
11:34 76.3 °F /  24.6 °C 57.4 °F /  14.1 °C 29.9in /  1012.2hPa SSE 3mph /  4.9km/h 6.2mph /  10km/h 52% 0in /  0.0mm
11:39 76.3 °F /  24.6 °C 56.8 °F /  13.8 °C 29.9in /  1012.2hPa SSE 4mph /  6.4km/h 7.4mph /  11.9km/h 51.2% 0in /  0.0mm
11:44 76.3 °F /  24.6 °C 56.8 °F /  13.8 °C 29.9in /  1012.1hPa Sur 4mph /  6.5km/h 7mph /  11.3km/h 51% 0in /  0.0mm
11:49 76.3 °F /  24.6 °C 57 °F /  13.9 °C 29.9in /  1012.1hPa Sur 4.3mph /  6.9km/h 7mph /  11.3km/h 51.4% 0in /  0.0mm
11:54 76.3 °F /  24.6 °C 56.8 °F /  13.8 °C 29.9in /  1012.1hPa SSE 4.3mph /  6.9km/h 6.9mph /  11.1km/h 51.2% 0in /  0.0mm
11:59 76.5 °F /  24.7 °C 57 °F /  13.9 °C 29.9in /  1012.1hPa SSE 4.3mph /  6.9km/h 7mph /  11.3km/h 51.1% 0in /  0.0mm
12:04 76.5 °F /  24.7 °C 57.4 °F /  14.1 °C 29.9in /  1012.1hPa SSE 4.3mph /  6.9km/h 7mph /  11.3km/h 51.5% 0in /  0.0mm
12:09 76.6 °F /  24.8 °C 57.2 °F /  14 °C 29.9in /  1012.1hPa SSE 4.3mph /  6.9km/h 7mph /  11.3km/h 51% 0in /  0.0mm
12:14 76.8 °F /  24.9 °C 57.4 °F /  14.1 °C 29.9in /  1012.0hPa Sur 4.3mph /  6.9km/h 6.9mph /  11.1km/h 51% 0in /  0.0mm
12:19 77.4 °F /  25.2 °C 57.4 °F /  14.1 °C 29.9in /  1012.0hPa SSE 4mph /  6.5km/h 7mph /  11.3km/h 50.3% 0in /  0.0mm
12:24 77.5 °F /  25.3 °C 57 °F /  13.9 °C 29.9in /  1012.0hPa SSE 4.1mph /  6.6km/h 8.1mph /  13km/h 49.2% 0in /  0.0mm
12:29 78.1 °F /  25.6 °C 57.2 °F /  14 °C 29.9in /  1011.9hPa SSE 4.7mph /  7.6km/h 9.7mph /  15.6km/h 48.8% 0in /  0.0mm
12:34 78.6 °F /  25.9 °C 56.7 °F /  13.7 °C 29.9in /  1011.9hPa SSE 4.9mph /  7.9km/h 10mph /  16.1km/h 47.1% 0in /  0.0mm
12:39 79.2 °F /  26.2 °C 57 °F /  13.9 °C 29.9in /  1012.0hPa Sur 5.9mph /  9.5km/h 9mph /  14.5km/h 46.6% 0in /  0.0mm
12:44 79.5 °F /  26.4 °C 55.8 °F /  13.2 °C 29.9in /  1012.0hPa SSE 5.9mph /  9.5km/h 9mph /  14.5km/h 44.1% 0in /  0.0mm
12:49 80.1 °F /  26.7 °C 55.8 °F /  13.2 °C 29.9in /  1012.0hPa Sur 5.9mph /  9.5km/h 8mph /  12.9km/h 43.5% 0in /  0.0mm
12:54 80.4 °F /  26.9 °C 55.8 °F /  13.2 °C 29.9in /  1012.0hPa SSE 5.8mph /  9.3km/h 7mph /  11.3km/h 42.8% 0in /  0.0mm
12:59 81 °F /  27.2 °C 55.6 °F /  13.1 °C 29.9in /  1011.8hPa SE 4.7mph /  7.6km/h 4.7mph /  7.6km/h 41.9% 0in /  0.0mm
13:04 81.3 °F /  27.4 °C 55.4 °F /  13 °C 29.9in /  1011.8hPa SE 4.5mph /  7.2km/h 5mph /  8km/h 41% 0in /  0.0mm
13:09 81.9 °F /  27.7 °C 55 °F /  12.8 °C 29.9in /  1011.8hPa SSE 2.4mph /  3.9km/h 5mph /  8km/h 39.9% 0in /  0.0mm
13:14 82.4 °F /  28 °C 54.1 °F /  12.3 °C 29.9in /  1011.6hPa Oeste 2.3mph /  3.7km/h 3.5mph /  5.6km/h 37.7% 0in /  0.0mm
13:19 83.1 °F /  28.4 °C 53.2 °F /  11.8 °C 29.9in /  1011.6hPa NE 1.4mph /  2.3km/h 5.8mph /  9.3km/h 35.8% 0in /  0.0mm
13:24 83.7 °F /  28.7 °C 53.2 °F /  11.8 °C 29.9in /  1011.6hPa NE 1.5mph /  2.4km/h 6mph /  9.7km/h 35.2% 0in /  0.0mm
13:29 84.2 °F /  29 °C 53.8 °F /  12.1 °C 29.9in /  1011.4hPa NNE 2mph /  3.2km/h 6mph /  9.7km/h 35.3% 0in /  0.0mm
13:34 84.6 °F /  29.2 °C 53.8 °F /  12.1 °C 29.9in /  1011.4hPa NO 2.1mph /  3.3km/h 5.2mph /  8.4km/h 35% 0in /  0.0mm
13:39 84.6 °F /  29.2 °C 54.1 °F /  12.3 °C 29.9in /  1011.4hPa NO 2.4mph /  3.9km/h 5mph /  8km/h 35.3% 0in /  0.0mm
13:44 84.7 °F /  29.3 °C 54.3 °F /  12.4 °C 29.9in /  1011.1hPa NE 2.4mph /  3.8km/h 5.8mph /  9.3km/h 35.1% 0in /  0.0mm
13:49 84.9 °F /  29.4 °C 54.1 °F /  12.3 °C 29.9in /  1011.1hPa NNE 2mph /  3.2km/h 6mph /  9.7km/h 35% 0in /  0.0mm
13:54 84.9 °F /  29.4 °C 54.3 °F /  12.4 °C 29.9in /  1011.1hPa NNE 2.1mph /  3.3km/h 5mph /  8km/h 35.1% 0in /  0.0mm
13:59 85.5 °F /  29.7 °C 54.7 °F /  12.6 °C 29.9in /  1010.9hPa North 2.4mph /  3.9km/h 5.2mph /  8.4km/h 35.1% 0in /  0.0mm
14:04 85.6 °F /  29.8 °C 54.9 °F /  12.7 °C 29.9in /  1010.9hPa NO 2.4mph /  3.9km/h 5.2mph /  8.4km/h 35% 0in /  0.0mm
14:09 85.8 °F /  29.9 °C 54.9 °F /  12.7 °C 29.9in /  1010.9hPa NNE 2.9mph /  4.7km/h 5.2mph /  8.4km/h 35% 0in /  0.0mm
14:14 86.2 °F /  30.1 °C 54.5 °F /  12.5 °C 29.8in /  1010.6hPa North 2.7mph /  4.4km/h 5mph /  8km/h 34.1% 0in /  0.0mm
14:19 86.4 °F /  30.2 °C 54.3 °F /  12.4 °C 29.8in /  1010.6hPa NNO 2mph /  3.2km/h 5mph /  8km/h 33.5% 0in /  0.0mm
14:24 86.7 °F /  30.4 °C 54.3 °F /  12.4 °C 29.8in /  1010.6hPa NO 2mph /  3.2km/h 5mph /  8km/h 33.1% 0in /  0.0mm
14:29 87.3 °F /  30.7 °C 54.3 °F /  12.4 °C 29.8in /  1010.4hPa NE 2mph /  3.2km/h 8.1mph /  13km/h 32.6% 0in /  0.0mm
14:34 87.8 °F /  31 °C 53.2 °F /  11.8 °C 29.8in /  1010.4hPa ENE 2.1mph /  3.3km/h 8.1mph /  13km/h 30.8% 0in /  0.0mm
14:39 88.2 °F /  31.2 °C 52.5 °F /  11.4 °C 29.8in /  1010.4hPa NE 2.4mph /  3.9km/h 6.2mph /  10km/h 29.8% 0in /  0.0mm
14:44 88.3 °F /  31.3 °C 52.2 °F /  11.2 °C 29.8in /  1010.3hPa Oeste 2.5mph /  4.1km/h 7mph /  11.3km/h 29.2% 0in /  0.0mm
14:49 88.2 °F /  31.2 °C 52.9 °F /  11.6 °C 29.8in /  1010.3hPa ONO 3.6mph /  5.8km/h 7mph /  11.3km/h 30.1% 0in /  0.0mm
14:54 88.3 °F /  31.3 °C 53.2 °F /  11.8 °C 29.8in /  1010.3hPa NNE 3.6mph /  5.8km/h 8.5mph /  13.7km/h 30.4% 0in /  0.0mm
14:59 88.3 °F /  31.3 °C 54 °F /  12.2 °C 29.8in /  1010.0hPa NE 3.6mph /  5.8km/h 9mph /  14.5km/h 31.2% 0in /  0.0mm
15:04 88.3 °F /  31.3 °C 54 °F /  12.2 °C 29.8in /  1010.0hPa NO 3.5mph /  5.7km/h 5.8mph /  9.3km/h 31.1% 0in /  0.0mm
15:09 88.7 °F /  31.5 °C 54.1 °F /  12.3 °C 29.8in /  1010.0hPa ONO 3.1mph /  5km/h 6.9mph /  11.1km/h 31% 0in /  0.0mm
15:14 88.7 °F /  31.5 °C 54.9 °F /  12.7 °C 29.8in /  1009.8hPa Este 3.2mph /  5.1km/h 9.2mph /  14.8km/h 31.7% 0in /  0.0mm
15:19 88.5 °F /  31.4 °C 54.5 °F /  12.5 °C 29.8in /  1009.8hPa SE 3.6mph /  5.8km/h 9mph /  14.5km/h 31.5% 0in /  0.0mm
15:24 88.7 °F /  31.5 °C 55 °F /  12.8 °C 29.8in /  1009.8hPa ESE 3.7mph /  5.9km/h 8.1mph /  13km/h 32% 0in /  0.0mm
15:29 88.7 °F /  31.5 °C 55.2 °F /  12.9 °C 29.8in /  1009.6hPa Este 4mph /  6.4km/h 8.1mph /  13km/h 32.2% 0in /  0.0mm
15:34 88.5 °F /  31.4 °C 54.7 °F /  12.6 °C 29.8in /  1009.6hPa SSE 4mph /  6.5km/h 8.1mph /  13km/h 31.6% 0in /  0.0mm
15:39 88.7 °F /  31.5 °C 55.2 °F /  12.9 °C 29.8in /  1009.6hPa Este 4.3mph /  6.9km/h 7.4mph /  11.9km/h 32.2% 0in /  0.0mm
15:44 88.9 °F /  31.6 °C 55 °F /  12.8 °C 29.8in /  1009.3hPa ESE 4.3mph /  7km/h 11.5mph /  18.5km/h 31.9% 0in /  0.0mm
15:49 88.5 °F /  31.4 °C 54.7 °F /  12.6 °C 29.8in /  1009.3hPa SSE 4.7mph /  7.6km/h 12mph /  19.3km/h 31.8% 0in /  0.0mm
15:54 88.3 °F /  31.3 °C 54.9 °F /  12.7 °C 29.8in /  1009.3hPa ESE 5mph /  8.1km/h 11.8mph /  19km/h 32.2% 0in /  0.0mm
15:59 88.5 °F /  31.4 °C 54.7 °F /  12.6 °C 29.8in /  1009.0hPa ESE 6.9mph /  11.1km/h 12mph /  19.3km/h 31.8% 0in /  0.0mm
16:04 88.7 °F /  31.5 °C 54.3 °F /  12.4 °C 29.8in /  1009.0hPa Sur 6.4mph /  10.3km/h 9mph /  14.5km/h 31.2% 0in /  0.0mm
16:09 89.2 °F /  31.8 °C 55 °F /  12.8 °C 29.8in /  1009.0hPa ESE 3.6mph /  5.8km/h 7.4mph /  11.9km/h 31.5% 0in /  0.0mm
16:14 89.2 °F /  31.8 °C 55.2 °F /  12.9 °C 29.8in /  1008.9hPa SE 3.9mph /  6.2km/h 11.8mph /  19km/h 31.7% 0in /  0.0mm
16:19 88.9 °F /  31.6 °C 55.2 °F /  12.9 °C 29.8in /  1008.9hPa ESE 5.4mph /  8.7km/h 12mph /  19.3km/h 31.9% 0in /  0.0mm
16:24 88.7 °F /  31.5 °C 55.6 °F /  13.1 °C 29.8in /  1008.9hPa ENE 5.3mph /  8.5km/h 12mph /  19.3km/h 32.5% 0in /  0.0mm
16:29 89.1 °F /  31.7 °C 55.2 °F /  12.9 °C 29.8in /  1008.8hPa SSO 4.7mph /  7.6km/h 7mph /  11.3km/h 32% 0in /  0.0mm
16:34 89.2 °F /  31.8 °C 55.4 °F /  13 °C 29.8in /  1008.8hPa Este 4.5mph /  7.3km/h 6.2mph /  10km/h 32% 0in /  0.0mm
16:39 89.2 °F /  31.8 °C 55.6 °F /  13.1 °C 29.8in /  1008.8hPa NE 3.1mph /  5km/h 9.2mph /  14.8km/h 32.1% 0in /  0.0mm
16:44 89.1 °F /  31.7 °C 55.9 °F /  13.3 °C 29.8in /  1008.7hPa NNE 3.4mph /  5.4km/h 11.2mph /  18km/h 32.5% 0in /  0.0mm
16:49 88.7 °F /  31.5 °C 55.9 °F /  13.3 °C 29.8in /  1008.7hPa NE 5.4mph /  8.7km/h 12mph /  19.3km/h 33% 0in /  0.0mm
16:54 88.5 °F /  31.4 °C 55.9 °F /  13.3 °C 29.8in /  1008.7hPa NE 5.5mph /  8.8km/h 12mph /  19.3km/h 33.2% 0in /  0.0mm
16:59 88.7 °F /  31.5 °C 56.1 °F /  13.4 °C 29.8in /  1008.7hPa NE 6.2mph /  10km/h 9.7mph /  15.6km/h 33.2% 0in /  0.0mm
17:04 88.7 °F /  31.5 °C 55.9 °F /  13.3 °C 29.8in /  1008.7hPa NNE 6.1mph /  9.8km/h 10.4mph /  16.7km/h 33.1% 0in /  0.0mm
17:09 88.5 °F /  31.4 °C 56.7 °F /  13.7 °C 29.8in /  1008.7hPa ENE 5.2mph /  8.4km/h 10.7mph /  17.2km/h 34% 0in /  0.0mm
17:14 88.5 °F /  31.4 °C 58.3 °F /  14.6 °C 29.8in /  1008.6hPa Este 5.5mph /  8.8km/h 15.2mph /  24.5km/h 36.2% 0in /  0.0mm
17:19 88.2 °F /  31.2 °C 59.9 °F /  15.5 °C 29.8in /  1008.6hPa ESE 7.4mph /  11.9km/h 19mph /  30.6km/h 38.8% 0in /  0.0mm
17:24 87.3 °F /  30.7 °C 61 °F /  16.1 °C 29.8in /  1008.8hPa ESE 8.2mph /  13.2km/h 20.7mph /  33.3km/h 41.6% 0in /  0.0mm
17:29 86.5 °F /  30.3 °C 61.3 °F /  16.3 °C 29.8in /  1008.8hPa ESE 12.5mph /  20.1km/h 21mph /  33.8km/h 42.7% 0in /  0.0mm
17:34 86.4 °F /  30.2 °C 62.1 °F /  16.7 °C 29.8in /  1008.8hPa ESE 12.4mph /  19.9km/h 20.7mph /  33.3km/h 44.2% 0in /  0.0mm
17:39 86.4 °F /  30.2 °C 62.6 °F /  17 °C 29.8in /  1008.8hPa ESE 11.2mph /  18km/h 19mph /  30.6km/h 45.3% 0in /  0.0mm
17:44 86.2 °F /  30.1 °C 62.8 °F /  17.1 °C 29.8in /  1008.7hPa SE 10.9mph /  17.6km/h 18.5mph /  29.8km/h 45.6% 0in /  0.0mm
17:49 86 °F /  30 °C 62.2 °F /  16.8 °C 29.8in /  1008.7hPa ESE 9.2mph /  14.8km/h 19mph /  30.6km/h 45.1% 0in /  0.0mm
17:54 85.6 °F /  29.8 °C 61.2 °F /  16.2 °C 29.8in /  1008.7hPa SE 9.5mph /  15.3km/h 19mph /  30.6km/h 43.8% 0in /  0.0mm
17:59 85.6 °F /  29.8 °C 60.4 °F /  15.8 °C 29.8in /  1008.7hPa SE 11.2mph /  18km/h 18.4mph /  29.6km/h 42.7% 0in /  0.0mm
18:04 85.5 °F /  29.7 °C 59.7 °F /  15.4 °C 29.8in /  1008.7hPa ESE 11.1mph /  17.9km/h 18mph /  29km/h 42% 0in /  0.0mm
18:09 85.5 °F /  29.7 °C 59.4 °F /  15.2 °C 29.8in /  1008.8hPa ESE 10.7mph /  17.2km/h 13mph /  20.9km/h 41.2% 0in /  0.0mm
18:14 85.8 °F /  29.9 °C 58.8 °F /  14.9 °C 29.8in /  1008.8hPa SE 10.4mph /  16.7km/h 15.2mph /  24.5km/h 40.3% 0in /  0.0mm
18:19 85.8 °F /  29.9 °C 59.4 °F /  15.2 °C 29.8in /  1008.8hPa SE 8.1mph /  13.1km/h 15mph /  24.1km/h 41% 0in /  0.0mm
18:24 85.8 °F /  29.9 °C 59.4 °F /  15.2 °C 29.8in /  1008.8hPa SE 8.1mph /  13.1km/h 14mph /  22.5km/h 40.9% 0in /  0.0mm
18:29 86 °F /  30 °C 59 °F /  15 °C 29.8in /  1008.8hPa SE 8.5mph /  13.7km/h 14mph /  22.5km/h 40.1% 0in /  0.0mm
18:34 86 °F /  30 °C 58.8 °F /  14.9 °C 29.8in /  1008.8hPa SE 8.4mph /  13.6km/h 13mph /  20.9km/h 39.9% 0in /  0.0mm
18:39 86.4 °F /  30.2 °C 58.6 °F /  14.8 °C 29.8in /  1008.8hPa ESE 8.1mph /  13km/h 12mph /  19.3km/h 39.5% 0in /  0.0mm
18:44 86.5 °F /  30.3 °C 57.9 °F /  14.4 °C 29.8in /  1008.7hPa SE 7.7mph /  12.4km/h 10.4mph /  16.7km/h 38.2% 0in /  0.0mm
18:49 86.7 °F /  30.4 °C 57.6 °F /  14.2 °C 29.8in /  1008.7hPa ESE 4.7mph /  7.6km/h 10mph /  16.1km/h 37.4% 0in /  0.0mm
18:54 86.5 °F /  30.3 °C 57.2 °F /  14 °C 29.8in /  1008.9hPa ESE 4.9mph /  7.9km/h 10.4mph /  16.7km/h 37% 0in /  0.0mm
18:59 86.5 °F /  30.3 °C 57 °F /  13.9 °C 29.8in /  1008.9hPa ESE 5.9mph /  9.5km/h 10mph /  16.1km/h 36.7% 0in /  0.0mm
19:04 86.5 °F /  30.3 °C 56.5 °F /  13.6 °C 29.8in /  1008.9hPa SE 6mph /  9.6km/h 11.5mph /  18.5km/h 36% 0in /  0.0mm
19:09 86.4 °F /  30.2 °C 56.3 °F /  13.5 °C 29.8in /  1008.9hPa ESE 6.2mph /  10km/h 12mph /  19.3km/h 36% 0in /  0.0mm
19:14 86.4 °F /  30.2 °C 56.3 °F /  13.5 °C 29.8in /  1008.8hPa ESE 6mph /  9.6km/h 8mph /  12.9km/h 36% 0in /  0.0mm
19:19 86.5 °F /  30.3 °C 56.3 °F /  13.5 °C 29.8in /  1008.8hPa SE 4.7mph /  7.6km/h 7mph /  11.3km/h 36% 0in /  0.0mm
19:24 86.5 °F /  30.3 °C 56.1 °F /  13.4 °C 29.8in /  1009.0hPa ESE 4.5mph /  7.2km/h 6.9mph /  11.1km/h 35.8% 0in /  0.0mm
19:29 86.4 °F /  30.2 °C 55.4 °F /  13 °C 29.8in /  1009.0hPa SE 3.1mph /  5km/h 7.4mph /  11.9km/h 34.9% 0in /  0.0mm
19:34 86.4 °F /  30.2 °C 55.4 °F /  13 °C 29.8in /  1009.0hPa ESE 3.3mph /  5.3km/h 7mph /  11.3km/h 35% 0in /  0.0mm
19:39 86 °F /  30 °C 55.4 °F /  13 °C 29.8in /  1009.1hPa ESE 4.7mph /  7.5km/h 9.7mph /  15.6km/h 35.4% 0in /  0.0mm
19:44 85.3 °F /  29.6 °C 56.5 °F /  13.6 °C 29.8in /  1009.1hPa ESE 4.9mph /  7.9km/h 10mph /  16.1km/h 37.4% 0in /  0.0mm
19:49 84.7 °F /  29.3 °C 56.8 °F /  13.8 °C 29.8in /  1009.1hPa ESE 6.2mph /  10km/h 10.4mph /  16.7km/h 38.6% 0in /  0.0mm
19:54 84.4 °F /  29.1 °C 56.7 °F /  13.7 °C 29.8in /  1009.1hPa ESE 6.2mph /  9.9km/h 10.4mph /  16.7km/h 39% 0in /  0.0mm
19:59 84.4 °F /  29.1 °C 56.7 °F /  13.7 °C 29.8in /  1009.1hPa ESE 5.9mph /  9.5km/h 9mph /  14.5km/h 39% 0in /  0.0mm
20:04 83.8 °F /  28.8 °C 57 °F /  13.9 °C 29.8in /  1009.1hPa ESE 5.8mph /  9.4km/h 8.1mph /  13km/h 40% 0in /  0.0mm
20:09 83.7 °F /  28.7 °C 57.4 °F /  14.1 °C 29.8in /  1009.2hPa ESE 5.2mph /  8.4km/h 8.5mph /  13.7km/h 40.9% 0in /  0.0mm
20:14 83.3 °F /  28.5 °C 57.4 °F /  14.1 °C 29.8in /  1009.2hPa ESE 5.2mph /  8.4km/h 9mph /  14.5km/h 41.6% 0in /  0.0mm
20:19 82.9 °F /  28.3 °C 57.6 °F /  14.2 °C 29.8in /  1009.2hPa Este 5.2mph /  8.4km/h 7.4mph /  11.9km/h 42% 0in /  0.0mm
20:24 82.9 °F /  28.3 °C 57.4 °F /  14.1 °C 29.8in /  1009.4hPa ESE 4.9mph /  7.9km/h 7mph /  11.3km/h 42% 0in /  0.0mm
20:29 82.8 °F /  28.2 °C 57.4 °F /  14.1 °C 29.8in /  1009.4hPa Este 3.1mph /  5km/h 6mph /  9.7km/h 42% 0in /  0.0mm
20:34 82.8 °F /  28.2 °C 57.2 °F /  14 °C 29.8in /  1009.4hPa ESE 2.9mph /  4.6km/h 4.6mph /  7.4km/h 42% 0in /  0.0mm
20:39 82.6 °F /  28.1 °C 57.7 °F /  14.3 °C 29.8in /  1009.8hPa NNO 1.8mph /  2.9km/h 5.2mph /  8.4km/h 42.8% 0in /  0.0mm
20:44 82 °F /  27.8 °C 57.7 °F /  14.3 °C 29.8in /  1009.8hPa NNO 1.9mph /  3.1km/h 5.2mph /  8.4km/h 43.7% 0in /  0.0mm
20:49 81.9 °F /  27.7 °C 57.7 °F /  14.3 °C 29.8in /  1009.8hPa NNO 3.1mph /  5km/h 5.8mph /  9.3km/h 44% 0in /  0.0mm
20:54 81.5 °F /  27.5 °C 57.6 °F /  14.2 °C 29.8in /  1010.1hPa NO 3mph /  4.8km/h 6mph /  9.7km/h 44% 0in /  0.0mm
20:59 81.3 °F /  27.4 °C 57.4 °F /  14.1 °C 29.8in /  1010.1hPa NO 2mph /  3.2km/h 6.9mph /  11.1km/h 44% 0in /  0.0mm
21:04 81.1 °F /  27.3 °C 57.4 °F /  14.1 °C 29.8in /  1010.1hPa ONO 2.1mph /  3.3km/h 7mph /  11.3km/h 44.2% 0in /  0.0mm
21:09 81.1 °F /  27.3 °C 57.7 °F /  14.3 °C 29.8in /  1010.4hPa OSO 2.4mph /  3.9km/h 5.2mph /  8.4km/h 45% 0in /  0.0mm
21:14 81.1 °F /  27.3 °C 58.5 °F /  14.7 °C 29.8in /  1010.4hPa SSO 2.5mph /  4.1km/h 11.5mph /  18.5km/h 46% 0in /  0.0mm
21:19 81.1 °F /  27.3 °C 59 °F /  15 °C 29.8in /  1010.4hPa SSO 3.6mph /  5.8km/h 12mph /  19.3km/h 47% 0in /  0.0mm
21:24 81 °F /  27.2 °C 59.4 °F /  15.2 °C 29.9in /  1010.8hPa SSO 3.9mph /  6.3km/h 13mph /  20.9km/h 47.8% 0in /  0.0mm
21:29 81 °F /  27.2 °C 59.5 °F /  15.3 °C 29.9in /  1010.8hPa SSO 6.4mph /  10.3km/h 13mph /  20.9km/h 48.3% 0in /  0.0mm
21:34 80.8 °F /  27.1 °C 59.7 °F /  15.4 °C 29.9in /  1010.8hPa SSO 6.3mph /  10.1km/h 12mph /  19.3km/h 49% 0in /  0.0mm
21:39 80.6 °F /  27 °C 59.7 °F /  15.4 °C 29.9in /  1010.9hPa Sur 5.4mph /  8.7km/h 9.7mph /  15.6km/h 49% 0in /  0.0mm
21:44 80.6 °F /  27 °C 59.7 °F /  15.4 °C 29.9in /  1010.9hPa Sur 5.4mph /  8.7km/h 10mph /  16.1km/h 49.2% 0in /  0.0mm
Murcia-Puente Tocinos, España
Compliments of Weather Underground - 2.75 mb

La estación de MeteoMurcia.com, publica sus datos en los siguientes proyectos:

Weather Underground PWS IMURCIAP2 Meteoclimatic www.awekas.at

W3Counter
Web Analytics